createdAt,value
2023-04-09T00:01:52.108Z,39.05
2023-04-09T00:04:25.118Z,36.75
2023-04-09T00:06:57.409Z,36.86
2023-04-09T00:09:29.657Z,39.44
2023-04-09T00:12:02.316Z,39.14
2023-04-09T00:14:34.594Z,36.96
2023-04-09T00:17:09.433Z,37.74
2023-04-09T00:19:41.775Z,36.11
2023-04-09T00:22:14.022Z,37.06
2023-04-09T00:24:46.368Z,37.81
2023-04-09T00:27:18.683Z,36.86
2023-04-09T00:29:50.969Z,36.75
2023-04-09T00:32:25.976Z,37.36
2023-04-09T00:34:58.183Z,37.66
2023-04-09T00:37:30.526Z,38.04
2023-04-09T00:40:02.766Z,37.88
2023-04-09T00:42:36.507Z,38.13
2023-04-09T00:45:09.856Z,36.74
2023-04-09T00:47:46.698Z,39.21
2023-04-09T00:50:20.240Z,37.40
2023-04-09T00:52:52.475Z,38.94
2023-04-09T00:55:26.365Z,37.43
2023-04-09T00:57:58.583Z,37.00
2023-04-09T01:00:31.040Z,37.95
2023-04-09T01:03:08.661Z,37.05
2023-04-09T01:05:52.824Z,37.03
2023-04-09T01:08:37.333Z,38.76
2023-04-09T01:11:19.908Z,38.36
2023-04-09T01:14:04.395Z,38.21
2023-04-09T01:16:41.048Z,37.86
2023-04-09T01:19:36.622Z,36.96
2023-04-09T01:22:18.089Z,39.13
2023-04-09T01:25:07.374Z,37.08
2023-04-09T01:27:51.071Z,38.46
2023-04-09T01:30:26.643Z,38.33
2023-04-09T01:33:02.619Z,37.62
2023-04-09T01:35:35.632Z,37.42
2023-04-09T01:38:09.856Z,36.24
2023-04-09T01:40:42.379Z,36.12
2023-04-09T01:43:17.374Z,36.04
2023-04-09T01:45:54.564Z,36.54
2023-04-09T01:48:28.330Z,35.33
2023-04-09T01:51:01.724Z,36.23
2023-04-09T01:53:33.990Z,38.08
2023-04-09T01:56:06.810Z,39.19
2023-04-09T01:58:40.818Z,38.92
2023-04-09T02:01:25.908Z,37.29
2023-04-09T02:04:04.733Z,38.16
2023-04-09T02:06:46.645Z,38.29
2023-04-09T02:09:24.307Z,38.71
2023-04-09T02:12:01.191Z,37.47
2023-04-09T02:14:37.273Z,38.81
2023-04-09T02:17:12.392Z,39.66
2023-04-09T02:19:45.554Z,39.04
2023-04-09T02:22:19.355Z,37.10
2023-04-09T02:24:51.940Z,39.15
2023-04-09T02:27:24.201Z,39.58
2023-04-09T02:29:56.402Z,38.81
2023-04-09T02:32:31.330Z,39.41
2023-04-09T02:35:03.739Z,39.34
2023-04-09T02:37:35.964Z,38.24
2023-04-09T02:40:08.663Z,38.56
2023-04-09T02:42:40.936Z,39.29
2023-04-09T02:45:14.295Z,38.15
2023-04-09T02:47:49.194Z,39.16
2023-04-09T02:50:21.708Z,38.68
2023-04-09T02:52:54.068Z,38.59
2023-04-09T02:55:26.611Z,39.26
2023-04-09T02:57:58.834Z,38.89
2023-04-09T03:00:31.141Z,40.17
2023-04-09T03:03:06.152Z,40.06
2023-04-09T03:05:39.156Z,40.48
2023-04-09T03:08:11.379Z,39.88
2023-04-09T03:10:43.572Z,37.64
2023-04-09T03:13:15.923Z,38.58
2023-04-09T03:15:48.139Z,38.46
2023-04-09T03:18:23.041Z,38.76
2023-04-09T03:20:55.301Z,38.16
2023-04-09T03:23:27.569Z,38.83
2023-04-09T03:26:05.823Z,40.49
2023-04-09T03:28:38.095Z,39.26
2023-04-09T03:31:10.375Z,38.27
2023-04-09T03:33:45.289Z,37.83
2023-04-09T03:36:17.518Z,37.91
2023-04-09T03:38:49.926Z,38.18
2023-04-09T03:41:22.322Z,38.42
2023-04-09T03:43:54.511Z,38.69
2023-04-09T03:46:26.832Z,38.16
2023-04-09T03:49:01.968Z,37.26
2023-04-09T03:51:34.663Z,38.13
2023-04-09T03:54:06.922Z,37.43
2023-04-09T03:56:39.094Z,38.13
2023-04-09T03:59:11.417Z,36.87
2023-04-09T04:01:43.749Z,37.39
2023-04-09T04:04:20.575Z,38.11
2023-04-09T04:06:55.158Z,37.56
2023-04-09T04:09:27.451Z,37.51
2023-04-09T04:11:59.720Z,36.31
2023-04-09T04:14:31.922Z,38.11
2023-04-09T04:17:04.127Z,36.66
2023-04-09T04:19:39.016Z,38.55
2023-04-09T04:22:11.244Z,38.39
2023-04-09T04:24:43.436Z,36.56
2023-04-09T04:27:16.050Z,38.34
2023-04-09T04:29:48.313Z,37.24
2023-04-09T04:32:20.631Z,36.46
2023-04-09T04:34:56.100Z,37.38
2023-04-09T04:37:28.472Z,37.47
2023-04-09T04:40:00.751Z,36.81
2023-04-09T04:42:33.041Z,37.68
2023-04-09T04:45:05.824Z,37.15
2023-04-09T04:47:38.018Z,37.09
2023-04-09T04:50:14.319Z,38.11
2023-04-09T04:52:46.540Z,36.21
2023-04-09T04:55:18.723Z,35.41
2023-04-09T04:57:50.998Z,36.72
2023-04-09T05:00:23.281Z,37.43
2023-04-09T05:02:55.556Z,37.87
2023-04-09T05:05:30.622Z,36.54
2023-04-09T05:08:02.872Z,36.70
2023-04-09T05:10:35.167Z,37.07
2023-04-09T05:13:07.392Z,37.66
2023-04-09T05:15:42.600Z,39.25
2023-04-09T05:18:14.806Z,37.91
2023-04-09T05:20:49.563Z,37.31
2023-04-09T05:23:21.812Z,38.14
2023-04-09T05:25:54.069Z,36.98
2023-04-09T05:28:26.292Z,38.35
2023-04-09T05:30:58.614Z,37.69
2023-04-09T05:33:33.844Z,38.75
2023-04-09T05:36:09.241Z,37.99
2023-04-09T05:38:41.554Z,37.93
2023-04-09T05:41:13.912Z,39.27
2023-04-09T05:43:46.172Z,39.96
2023-04-09T05:46:18.477Z,39.34
2023-04-09T05:48:51.065Z,39.74
2023-04-09T05:51:26.090Z,40.39
2023-04-09T05:53:58.327Z,41.85
2023-04-09T05:56:30.513Z,43.46
2023-04-09T05:59:02.733Z,44.13
2023-04-09T06:01:34.985Z,44.68
2023-04-09T06:04:07.405Z,46.45
2023-04-09T06:06:44.211Z,45.66
2023-04-09T06:09:16.358Z,43.57
2023-04-09T06:11:48.560Z,44.66
2023-04-09T06:14:20.825Z,46.34
2023-04-09T06:16:53.073Z,44.29
2023-04-09T06:19:25.809Z,43.68
2023-04-09T06:22:00.629Z,43.37
2023-04-09T06:24:35.448Z,43.17
2023-04-09T06:27:08.052Z,43.20
2023-04-09T06:29:40.291Z,44.41
2023-04-09T06:32:12.510Z,44.43
2023-04-09T06:34:44.692Z,41.85
2023-04-09T06:37:19.572Z,40.75
2023-04-09T06:40:00.337Z,39.46
2023-04-09T06:42:33.039Z,38.70
2023-04-09T06:45:08.563Z,39.24
2023-04-09T06:47:41.209Z,39.38
2023-04-09T06:50:13.901Z,40.64
2023-04-09T06:52:48.699Z,38.23
2023-04-09T06:55:20.997Z,37.84
2023-04-09T06:57:53.255Z,38.01
2023-04-09T07:00:26.396Z,35.94
2023-04-09T07:02:58.875Z,37.84
2023-04-09T07:05:31.467Z,36.32
2023-04-09T07:08:06.235Z,32.96
2023-04-09T07:10:38.530Z,34.90
2023-04-09T07:13:11.162Z,33.73
2023-04-09T07:15:43.464Z,34.56
2023-04-09T07:18:15.883Z,34.06
2023-04-09T07:20:48.095Z,34.11
2023-04-09T07:23:22.986Z,34.49
2023-04-09T07:25:55.340Z,33.32
2023-04-09T07:28:27.747Z,33.66
2023-04-09T07:31:01.533Z,33.44
2023-04-09T07:33:34.080Z,34.41
2023-04-09T07:36:07.020Z,34.12
2023-04-09T07:38:41.936Z,32.97
2023-04-09T07:41:15.675Z,31.71
2023-04-09T07:43:47.946Z,31.45
2023-04-09T07:46:23.768Z,31.41
2023-04-09T07:48:56.246Z,31.09
2023-04-09T07:51:28.959Z,31.89
2023-04-09T07:54:03.792Z,31.09
2023-04-09T07:56:36.125Z,32.54
2023-04-09T07:59:08.360Z,31.25
2023-04-09T08:01:40.685Z,32.74
2023-04-09T08:04:16.019Z,32.23
2023-04-09T08:06:51.016Z,31.61
2023-04-09T08:09:26.218Z,32.72
2023-04-09T08:11:58.566Z,31.33
2023-04-09T08:14:30.827Z,31.88
2023-04-09T08:17:03.922Z,32.11
2023-04-09T08:19:36.177Z,32.72
2023-04-09T08:22:08.434Z,32.30
2023-04-09T08:24:43.981Z,33.47
2023-04-09T08:27:16.301Z,33.89
2023-04-09T08:29:48.472Z,34.14
2023-04-09T08:32:20.984Z,34.62
2023-04-09T08:34:53.245Z,34.61
2023-04-09T08:37:25.678Z,34.32
2023-04-09T08:40:00.499Z,33.92
2023-04-09T08:42:35.715Z,36.87
2023-04-09T08:45:09.356Z,37.08
2023-04-09T08:47:44.238Z,36.07
2023-04-09T08:50:17.188Z,36.51
2023-04-09T08:52:52.834Z,35.27
2023-04-09T08:55:27.915Z,36.31
2023-04-09T08:58:01.246Z,37.84
2023-04-09T09:00:33.427Z,37.74
2023-04-09T09:03:07.345Z,36.75
2023-04-09T09:05:44.084Z,37.29
2023-04-09T09:08:18.373Z,37.92
2023-04-09T09:10:53.351Z,37.37
2023-04-09T09:13:28.002Z,38.37
2023-04-09T09:16:18.203Z,38.01
2023-04-09T09:18:51.625Z,39.98
2023-04-09T09:21:24.758Z,42.89
2023-04-09T09:23:57.094Z,43.86
2023-04-09T09:26:33.656Z,43.98
2023-04-09T09:29:08.565Z,41.96
2023-04-09T09:31:51.301Z,42.67
2023-04-09T09:34:25.617Z,43.14
2023-04-09T09:36:57.889Z,43.92
2023-04-09T09:39:47.415Z,42.69
2023-04-09T09:42:22.309Z,42.46
2023-04-09T09:44:55.636Z,42.34
2023-04-09T09:47:29.624Z,41.37
2023-04-09T09:50:01.843Z,40.51
2023-04-09T09:52:34.290Z,41.01
2023-04-09T09:55:11.702Z,39.83
2023-04-09T09:57:50.737Z,39.65
2023-04-09T10:00:25.711Z,38.96
2023-04-09T10:03:03.565Z,39.42
2023-04-09T10:05:36.887Z,39.24
2023-04-09T10:08:09.592Z,38.27
2023-04-09T10:10:45.172Z,37.64
2023-04-09T10:13:29.884Z,37.89
2023-04-09T10:16:02.735Z,38.70
2023-04-09T10:18:36.228Z,37.07
2023-04-09T10:21:16.450Z,35.69
2023-04-09T10:23:52.298Z,34.78
2023-04-09T10:26:27.626Z,34.97
2023-04-09T10:29:14.827Z,34.25
2023-04-09T10:32:07.835Z,33.67
2023-04-09T10:34:43.805Z,34.75
2023-04-09T10:37:20.198Z,35.68
2023-04-09T10:39:54.268Z,34.54
2023-04-09T10:42:29.216Z,35.13
2023-04-09T10:45:15.285Z,34.25
2023-04-09T10:47:48.614Z,34.21
2023-04-09T10:50:24.138Z,33.29
2023-04-09T10:53:00.409Z,34.24
2023-04-09T10:55:39.358Z,33.64
2023-04-09T10:58:13.964Z,33.97
2023-04-09T11:00:51.370Z,33.32
2023-04-09T11:03:30.700Z,32.66
2023-04-09T11:06:09.441Z,30.53
2023-04-09T11:08:43.471Z,29.13
2023-04-09T11:11:16.788Z,29.49
2023-04-09T11:13:49.058Z,27.46
2023-04-09T11:16:25.475Z,26.51
2023-04-09T11:18:58.991Z,27.76
2023-04-09T11:21:33.386Z,25.48
2023-04-09T11:24:06.332Z,24.70
2023-04-09T11:26:41.712Z,22.88
2023-04-09T11:29:14.006Z,22.59
2023-04-09T11:31:50.646Z,22.14
2023-04-09T11:34:22.889Z,21.70
2023-04-09T11:36:55.177Z,20.07
2023-04-09T11:39:27.410Z,20.29
2023-04-09T11:41:59.650Z,20.04
2023-04-09T11:44:31.881Z,18.72
2023-04-09T11:47:07.527Z,18.83
2023-04-09T11:49:40.077Z,19.43
2023-04-09T11:52:12.586Z,19.26
2023-04-09T11:54:44.786Z,18.93
2023-04-09T11:57:17.044Z,19.13
2023-04-09T11:59:49.665Z,19.40
2023-04-09T12:02:25.360Z,19.04
2023-04-09T12:04:57.755Z,19.91
2023-04-09T12:07:38.045Z,19.35
2023-04-09T12:10:14.043Z,19.71
2023-04-09T12:12:47.906Z,18.80
2023-04-09T12:15:25.788Z,18.83
2023-04-09T12:18:03.013Z,19.56
2023-04-09T12:20:39.724Z,19.69
2023-04-09T12:23:13.522Z,19.06
2023-04-09T12:25:48.263Z,19.88
2023-04-09T12:28:21.611Z,17.36
2023-04-09T12:30:55.580Z,17.31
2023-04-09T12:33:30.629Z,18.16
2023-04-09T12:36:02.939Z,17.85
2023-04-09T12:38:35.250Z,17.17
2023-04-09T12:41:07.575Z,16.59
2023-04-09T12:43:39.787Z,16.23
2023-04-09T12:46:12.073Z,17.16
2023-04-09T12:48:46.928Z,18.21
2023-04-09T12:51:19.617Z,17.91
2023-04-09T12:53:52.147Z,17.69
2023-04-09T12:56:25.002Z,18.08
2023-04-09T12:58:57.221Z,18.39
2023-04-09T13:01:29.512Z,18.12
2023-04-09T13:04:04.427Z,17.26
2023-04-09T13:06:36.808Z,17.49
2023-04-09T13:09:09.101Z,18.58
2023-04-09T13:11:41.400Z,18.82
2023-04-09T13:14:14.597Z,17.32
2023-04-09T13:16:46.819Z,18.00
2023-04-09T13:19:21.778Z,17.90
2023-04-09T13:21:53.998Z,18.92
2023-04-09T13:24:26.237Z,18.21
2023-04-09T13:26:58.521Z,16.99
2023-04-09T13:29:31.607Z,16.76
2023-04-09T13:32:07.335Z,17.58
2023-04-09T13:34:43.690Z,18.06
2023-04-09T13:37:15.997Z,17.57
2023-04-09T13:39:48.558Z,18.36
2023-04-09T13:42:20.844Z,17.42
2023-04-09T13:44:53.073Z,17.53
2023-04-09T13:47:25.292Z,17.79
2023-04-09T13:50:00.180Z,16.24
2023-04-09T13:52:32.929Z,16.76
2023-04-09T13:55:05.206Z,17.16
2023-04-09T13:57:37.486Z,15.86
2023-04-09T14:00:11.365Z,15.35
2023-04-09T14:02:44.033Z,15.80
2023-04-09T14:05:18.926Z,16.79
2023-04-09T14:07:51.187Z,15.93
2023-04-09T14:10:23.417Z,15.69
2023-04-09T14:12:56.493Z,16.81
2023-04-09T14:15:28.740Z,15.84
2023-04-09T14:18:01.182Z,16.15
2023-04-09T14:20:38.599Z,15.62
2023-04-09T14:23:10.803Z,14.28
2023-04-09T14:25:43.149Z,14.04
2023-04-09T14:28:15.454Z,15.99
2023-04-09T14:30:47.735Z,15.89
2023-04-09T14:33:19.911Z,16.59
2023-04-09T14:35:54.883Z,15.99
2023-04-09T14:38:27.238Z,16.83
2023-04-09T14:40:59.503Z,16.44
2023-04-09T14:43:31.756Z,16.12
2023-04-09T14:46:04.209Z,16.93
2023-04-09T14:48:36.462Z,17.74
2023-04-09T14:51:12.895Z,17.42
2023-04-09T14:53:45.306Z,17.13
2023-04-09T14:56:17.546Z,17.31
2023-04-09T14:58:49.773Z,17.71
2023-04-09T15:01:22.786Z,17.06
2023-04-09T15:03:55.455Z,15.98
2023-04-09T15:06:31.547Z,16.26
2023-04-09T15:09:03.865Z,16.74
2023-04-09T15:11:36.117Z,17.27
2023-04-09T15:14:08.408Z,15.07
2023-04-09T15:16:40.763Z,14.55
2023-04-09T15:19:13.028Z,14.49
2023-04-09T15:21:48.009Z,14.86
2023-04-09T15:24:20.715Z,14.99
2023-04-09T15:26:53.109Z,15.42
2023-04-09T15:29:25.532Z,16.19
2023-04-09T15:31:58.489Z,16.26
2023-04-09T15:34:30.862Z,16.71
2023-04-09T15:37:05.736Z,16.05
2023-04-09T15:39:38.019Z,17.69
2023-04-09T15:42:12.775Z,16.86
2023-04-09T15:44:46.919Z,16.59
2023-04-09T15:47:19.210Z,15.81
2023-04-09T15:49:51.620Z,16.83
2023-04-09T15:52:26.896Z,15.85
2023-04-09T15:54:59.356Z,15.95
2023-04-09T15:57:31.704Z,16.84
2023-04-09T16:00:04.003Z,16.14
2023-04-09T16:02:38.845Z,15.82
2023-04-09T16:05:12.258Z,16.09
2023-04-09T16:07:47.053Z,16.74
2023-04-09T16:10:19.330Z,16.53
2023-04-09T16:12:51.673Z,16.68
2023-04-09T16:15:23.891Z,17.31
2023-04-09T16:17:56.826Z,19.04
2023-04-09T16:20:29.468Z,16.51
2023-04-09T16:23:04.329Z,15.99
2023-04-09T16:25:36.612Z,16.20
2023-04-09T16:28:09.343Z,15.10
2023-04-09T16:30:41.566Z,15.01
2023-04-09T16:33:14.305Z,15.01
2023-04-09T16:35:46.754Z,14.74
2023-04-09T16:38:23.764Z,14.63
2023-04-09T16:40:56.203Z,16.16
2023-04-09T16:43:29.263Z,16.13
2023-04-09T16:46:01.918Z,16.93
2023-04-09T16:48:34.246Z,16.41
2023-04-09T16:51:06.480Z,16.72
2023-04-09T16:53:41.297Z,17.98
2023-04-09T16:56:13.923Z,17.71
2023-04-09T16:58:46.131Z,17.90
2023-04-09T17:01:18.440Z,17.29
2023-04-09T17:03:53.126Z,15.88
2023-04-09T17:06:25.364Z,15.80
2023-04-09T17:09:00.176Z,15.42
2023-04-09T17:11:32.754Z,15.91
2023-04-09T17:14:05.011Z,15.52
2023-04-09T17:16:38.311Z,15.53
2023-04-09T17:19:10.520Z,16.68
2023-04-09T17:21:43.014Z,15.89
2023-04-09T17:24:17.853Z,17.53
2023-04-09T17:26:50.082Z,16.90
2023-04-09T17:29:22.447Z,17.74
2023-04-09T17:31:55.051Z,17.36
2023-04-09T17:34:27.443Z,18.71
2023-04-09T17:37:00.266Z,18.06
2023-04-09T17:39:35.691Z,18.09
2023-04-09T17:42:08.030Z,17.50
2023-04-09T17:44:40.282Z,17.82
2023-04-09T17:47:12.579Z,17.27
2023-04-09T17:49:45.933Z,17.97
2023-04-09T17:52:18.278Z,18.38
2023-04-09T17:54:53.510Z,18.53
2023-04-09T17:57:25.793Z,19.41
2023-04-09T17:59:57.951Z,18.71
2023-04-09T18:02:30.330Z,18.46
2023-04-09T18:05:04.752Z,17.48
2023-04-09T18:07:37.106Z,18.79
2023-04-09T18:10:12.814Z,19.46
2023-04-09T18:12:44.999Z,20.29
2023-04-09T18:15:18.897Z,21.14
2023-04-09T18:17:51.677Z,30.14
2023-04-09T18:20:24.004Z,20.65
2023-04-09T18:22:56.212Z,20.10
2023-04-09T18:25:31.205Z,24.73
2023-04-09T18:28:03.436Z,27.36
2023-04-09T18:30:36.367Z,21.59
2023-04-09T18:33:08.888Z,20.22
2023-04-09T18:35:41.127Z,21.28
2023-04-09T18:38:13.330Z,23.71
2023-04-09T18:40:49.026Z,24.51
2023-04-09T18:43:21.364Z,24.86
2023-04-09T18:45:53.906Z,26.09
2023-04-09T18:48:26.198Z,28.12
2023-04-09T18:50:59.190Z,25.09
2023-04-09T18:53:31.573Z,21.94
2023-04-09T18:56:07.494Z,22.55
2023-04-09T18:58:39.714Z,22.16
2023-04-09T19:01:15.554Z,23.77
2023-04-09T19:03:48.057Z,24.15
2023-04-09T19:06:23.450Z,24.14
2023-04-09T19:08:58.377Z,25.80
2023-04-09T19:11:33.120Z,24.99
2023-04-09T19:14:05.353Z,27.34
2023-04-09T19:16:37.718Z,25.41
2023-04-09T19:19:10.020Z,24.25
2023-04-09T19:21:42.702Z,23.48
2023-04-09T19:24:15.001Z,23.48
2023-04-09T19:26:51.049Z,23.34
2023-04-09T19:29:23.369Z,24.59
2023-04-09T19:31:56.148Z,25.98
2023-04-09T19:34:28.476Z,27.84
2023-04-09T19:37:01.044Z,27.91
2023-04-09T19:39:33.411Z,27.00
2023-04-09T19:42:08.367Z,24.07
2023-04-09T19:44:40.825Z,23.80
2023-04-09T19:47:13.152Z,24.35
2023-04-09T19:49:45.737Z,22.61
2023-04-09T19:52:18.006Z,21.38
2023-04-09T19:54:50.327Z,20.43
2023-04-09T19:57:26.604Z,19.85
2023-04-09T19:59:58.844Z,19.66
2023-04-09T20:02:32.008Z,20.78
2023-04-09T20:05:04.591Z,21.24
2023-04-09T20:07:36.886Z,22.34
2023-04-09T20:10:10.630Z,22.34
2023-04-09T20:12:45.542Z,22.37
2023-04-09T20:15:20.142Z,23.31
2023-04-09T20:17:52.975Z,23.57
2023-04-09T20:20:25.254Z,24.18
2023-04-09T20:22:57.743Z,24.47
2023-04-09T20:25:34.970Z,22.71
2023-04-09T20:28:10.160Z,25.44
2023-04-09T20:30:42.996Z,29.46
2023-04-09T20:33:15.217Z,28.44
2023-04-09T20:35:48.351Z,25.07
2023-04-09T20:38:22.461Z,24.41
2023-04-09T20:40:54.760Z,24.02
2023-04-09T20:43:29.571Z,25.45
2023-04-09T20:46:01.836Z,25.17
2023-04-09T20:48:34.479Z,25.26
2023-04-09T20:51:11.874Z,26.09
2023-04-09T20:53:44.154Z,27.74
2023-04-09T20:56:17.094Z,29.59
2023-04-09T20:58:52.480Z,27.84
2023-04-09T21:01:27.382Z,28.98
2023-04-09T21:03:59.781Z,29.72
2023-04-09T21:06:32.125Z,29.52
2023-04-09T21:09:04.397Z,30.50
2023-04-09T21:11:36.640Z,27.69
2023-04-09T21:14:12.942Z,29.08
2023-04-09T21:16:45.261Z,29.09
2023-04-09T21:19:17.505Z,29.91
2023-04-09T21:21:49.795Z,29.80
2023-04-09T21:24:22.045Z,30.34
2023-04-09T21:26:54.248Z,29.16
2023-04-09T21:29:29.242Z,28.68
2023-04-09T21:32:01.441Z,29.03
2023-04-09T21:34:33.656Z,28.81
2023-04-09T21:37:07.134Z,28.37
2023-04-09T21:39:39.531Z,28.54
2023-04-09T21:42:11.731Z,29.20
2023-04-09T21:44:46.490Z,29.34
2023-04-09T21:47:18.767Z,29.72
2023-04-09T21:49:51.036Z,27.72
2023-04-09T21:52:23.402Z,27.44
2023-04-09T21:54:55.597Z,26.61
2023-04-09T21:57:27.857Z,27.95
2023-04-09T22:00:03.525Z,25.78
2023-04-09T22:02:38.853Z,26.61
2023-04-09T22:05:11.942Z,25.10
2023-04-09T22:07:46.484Z,25.39
2023-04-09T22:10:18.661Z,26.39
2023-04-09T22:12:50.963Z,25.14
2023-04-09T22:15:26.171Z,25.13
2023-04-09T22:17:58.698Z,26.37
2023-04-09T22:20:30.954Z,24.91
2023-04-09T22:23:03.395Z,25.64
2023-04-09T22:25:36.643Z,24.51
2023-04-09T22:28:09.037Z,24.51
2023-04-09T22:30:43.823Z,23.91
2023-04-09T22:33:16.063Z,23.38
2023-04-09T22:35:49.257Z,24.73
2023-04-09T22:38:21.751Z,24.81
2023-04-09T22:40:54.455Z,22.56
2023-04-09T22:43:26.761Z,22.30
2023-04-09T22:46:02.247Z,22.41
2023-04-09T22:48:40.739Z,21.46
2023-04-09T22:51:16.773Z,22.66
2023-04-09T22:53:49.781Z,23.25
2023-04-09T22:56:22.495Z,21.39
2023-04-09T22:58:54.967Z,21.60
2023-04-09T23:01:30.524Z,23.14
2023-04-09T23:04:02.784Z,22.74
2023-04-09T23:06:35.036Z,23.46
2023-04-09T23:09:07.437Z,24.36
2023-04-09T23:11:39.639Z,25.29
2023-04-09T23:14:11.829Z,25.76
2023-04-09T23:16:46.707Z,27.43
2023-04-09T23:19:18.994Z,26.66
2023-04-09T23:21:51.229Z,27.26
2023-04-09T23:24:23.426Z,29.50
2023-04-09T23:26:56.338Z,30.01
2023-04-09T23:29:28.560Z,29.31
2023-04-09T23:32:03.718Z,27.94
2023-04-09T23:34:36.024Z,29.49
2023-04-09T23:37:09.454Z,28.56
2023-04-09T23:39:41.777Z,27.81
2023-04-09T23:42:14.040Z,29.42
2023-04-09T23:44:46.896Z,29.04
2023-04-09T23:47:22.374Z,31.12
2023-04-09T23:49:54.741Z,32.77
2023-04-09T23:52:26.985Z,31.31
2023-04-09T23:55:00.060Z,30.87
2023-04-09T23:57:32.474Z,31.06
